sensor_id;sensor_type;location;lat;lon;timestamp;temperature;humidity
51801;DHT22;37855;53.204;6.568;2022-08-14T00:02:16;23.50;64.90
51801;DHT22;37855;53.204;6.568;2022-08-14T00:04:41;23.40;66.20
51801;DHT22;37855;53.204;6.568;2022-08-14T00:07:09;23.40;65.40
51801;DHT22;37855;53.204;6.568;2022-08-14T00:09:35;23.40;65.40
51801;DHT22;37855;53.204;6.568;2022-08-14T00:12:00;23.40;65.50
51801;DHT22;37855;53.204;6.568;2022-08-14T00:14:27;23.40;65.30
51801;DHT22;37855;53.204;6.568;2022-08-14T00:16:53;23.50;65.40
51801;DHT22;37855;53.204;6.568;2022-08-14T00:19:20;23.50;65.40
51801;DHT22;37855;53.204;6.568;2022-08-14T00:21:47;23.40;65.80
51801;DHT22;37855;53.204;6.568;2022-08-14T00:24:13;23.40;66.10
51801;DHT22;37855;53.204;6.568;2022-08-14T00:26:38;23.20;67.10
51801;DHT22;37855;53.204;6.568;2022-08-14T00:29:04;23.10;67.60
51801;DHT22;37855;53.204;6.568;2022-08-14T00:31:29;23.00;68.10
51801;DHT22;37855;53.204;6.568;2022-08-14T00:33:55;23.00;68.60
51801;DHT22;37855;53.204;6.568;2022-08-14T00:36:22;22.90;68.90
51801;DHT22;37855;53.204;6.568;2022-08-14T00:38:48;22.90;69.20
51801;DHT22;37855;53.204;6.568;2022-08-14T00:41:14;22.80;69.70
51801;DHT22;37855;53.204;6.568;2022-08-14T00:43:40;22.80;69.60
51801;DHT22;37855;53.204;6.568;2022-08-14T00:46:08;22.80;69.90
51801;DHT22;37855;53.204;6.568;2022-08-14T00:48:35;22.80;70.10
51801;DHT22;37855;53.204;6.568;2022-08-14T00:51:05;22.70;70.50
51801;DHT22;37855;53.204;6.568;2022-08-14T00:53:32;22.70;70.30
51801;DHT22;37855;53.204;6.568;2022-08-14T00:55:57;22.70;70.40
51801;DHT22;37855;53.204;6.568;2022-08-14T00:58:23;22.70;70.60
51801;DHT22;37855;53.204;6.568;2022-08-14T01:00:55;22.60;70.80
51801;DHT22;37855;53.204;6.568;2022-08-14T01:03:21;22.60;70.60
51801;DHT22;37855;53.204;6.568;2022-08-14T01:05:49;22.70;70.60
51801;DHT22;37855;53.204;6.568;2022-08-14T01:08:21;22.70;71.50
51801;DHT22;37855;53.204;6.568;2022-08-14T01:10:48;22.70;70.60
51801;DHT22;37855;53.204;6.568;2022-08-14T01:13:31;22.60;70.90
51801;DHT22;37855;53.204;6.568;2022-08-14T01:16:00;22.60;71.70
51801;DHT22;37855;53.204;6.568;2022-08-14T01:18:28;22.50;71.70
51801;DHT22;37855;53.204;6.568;2022-08-14T01:21:12;22.50;72.00
51801;DHT22;37855;53.204;6.568;2022-08-14T01:23:49;22.40;72.10
51801;DHT22;37855;53.204;6.568;2022-08-14T01:26:20;22.40;72.80
51801;DHT22;37855;53.204;6.568;2022-08-14T01:28:49;22.40;72.30
51801;DHT22;37855;53.204;6.568;2022-08-14T01:31:23;22.40;72.30
51801;DHT22;37855;53.204;6.568;2022-08-14T01:33:54;22.40;72.30
51801;DHT22;37855;53.204;6.568;2022-08-14T01:36:22;22.40;72.70
51801;DHT22;37855;53.204;6.568;2022-08-14T01:38:49;22.40;72.90
51801;DHT22;37855;53.204;6.568;2022-08-14T01:41:18;22.30;72.90
51801;DHT22;37855;53.204;6.568;2022-08-14T01:43:56;22.30;72.80
51801;DHT22;37855;53.204;6.568;2022-08-14T01:46:31;22.40;73.10
51801;DHT22;37855;53.204;6.568;2022-08-14T01:48:58;22.30;72.80
51801;DHT22;37855;53.204;6.568;2022-08-14T01:51:26;22.40;72.60
51801;DHT22;37855;53.204;6.568;2022-08-14T01:54:08;22.40;72.70
51801;DHT22;37855;53.204;6.568;2022-08-14T01:56:36;22.40;72.70
51801;DHT22;37855;53.204;6.568;2022-08-14T01:59:23;22.30;73.30
51801;DHT22;37855;53.204;6.568;2022-08-14T02:01:55;22.20;73.90
51801;DHT22;37855;53.204;6.568;2022-08-14T02:04:24;22.20;73.50
51801;DHT22;37855;53.204;6.568;2022-08-14T02:06:51;22.20;73.40
51801;DHT22;37855;53.204;6.568;2022-08-14T02:09:18;22.30;73.50
51801;DHT22;37855;53.204;6.568;2022-08-14T02:11:46;22.20;73.40
51801;DHT22;37855;53.204;6.568;2022-08-14T02:14:13;22.10;73.70
51801;DHT22;37855;53.204;6.568;2022-08-14T02:16:44;22.20;73.70
51801;DHT22;37855;53.204;6.568;2022-08-14T02:19:13;22.10;74.00
51801;DHT22;37855;53.204;6.568;2022-08-14T02:21:41;22.10;74.10
51801;DHT22;37855;53.204;6.568;2022-08-14T02:24:08;22.00;74.40
51801;DHT22;37855;53.204;6.568;2022-08-14T02:26:38;22.00;74.60
51801;DHT22;37855;53.204;6.568;2022-08-14T02:29:12;21.90;74.80
51801;DHT22;37855;53.204;6.568;2022-08-14T02:31:40;21.90;75.10
51801;DHT22;37855;53.204;6.568;2022-08-14T02:34:19;21.90;75.60
51801;DHT22;37855;53.204;6.568;2022-08-14T02:36:48;22.00;75.20
51801;DHT22;37855;53.204;6.568;2022-08-14T02:39:15;21.90;75.10
51801;DHT22;37855;53.204;6.568;2022-08-14T02:41:42;22.00;74.90
51801;DHT22;37855;53.204;6.568;2022-08-14T02:44:09;21.90;75.20
51801;DHT22;37855;53.204;6.568;2022-08-14T02:46:39;22.00;75.10
51801;DHT22;37855;53.204;6.568;2022-08-14T02:49:09;22.00;74.80
51801;DHT22;37855;53.204;6.568;2022-08-14T02:51:36;21.90;75.10
51801;DHT22;37855;53.204;6.568;2022-08-14T02:54:02;21.90;74.80
51801;DHT22;37855;53.204;6.568;2022-08-14T02:56:28;21.90;75.80
51801;DHT22;37855;53.204;6.568;2022-08-14T02:58:56;21.90;74.60
51801;DHT22;37855;53.204;6.568;2022-08-14T03:01:23;21.90;74.80
51801;DHT22;37855;53.204;6.568;2022-08-14T03:03:50;21.90;74.60
51801;DHT22;37855;53.204;6.568;2022-08-14T03:06:17;21.80;75.10
51801;DHT22;37855;53.204;6.568;2022-08-14T03:08:48;21.80;75.10
51801;DHT22;37855;53.204;6.568;2022-08-14T03:11:14;21.80;75.10
51801;DHT22;37855;53.204;6.568;2022-08-14T03:13:45;21.90;74.70
51801;DHT22;37855;53.204;6.568;2022-08-14T03:16:14;21.90;74.20
51801;DHT22;37855;53.204;6.568;2022-08-14T03:18:43;22.00;73.70
51801;DHT22;37855;53.204;6.568;2022-08-14T03:21:15;22.00;73.70
51801;DHT22;37855;53.204;6.568;2022-08-14T03:23:44;22.10;73.70
51801;DHT22;37855;53.204;6.568;2022-08-14T03:26:16;22.10;73.50
51801;DHT22;37855;53.204;6.568;2022-08-14T03:28:46;22.10;73.10
51801;DHT22;37855;53.204;6.568;2022-08-14T03:31:12;22.10;73.30
51801;DHT22;37855;53.204;6.568;2022-08-14T03:33:42;22.10;73.30
51801;DHT22;37855;53.204;6.568;2022-08-14T03:36:10;22.10;73.30
51801;DHT22;37855;53.204;6.568;2022-08-14T03:38:38;22.10;73.30
51801;DHT22;37855;53.204;6.568;2022-08-14T03:41:08;22.10;73.20
51801;DHT22;37855;53.204;6.568;2022-08-14T03:43:39;22.20;72.90
51801;DHT22;37855;53.204;6.568;2022-08-14T03:46:05;22.30;72.60
51801;DHT22;37855;53.204;6.568;2022-08-14T03:48:31;22.30;72.20
51801;DHT22;37855;53.204;6.568;2022-08-14T03:50:56;22.40;72.10
51801;DHT22;37855;53.204;6.568;2022-08-14T03:53:22;22.30;72.20
51801;DHT22;37855;53.204;6.568;2022-08-14T03:55:48;22.20;72.70
51801;DHT22;37855;53.204;6.568;2022-08-14T03:58:13;22.20;72.70
51801;DHT22;37855;53.204;6.568;2022-08-14T04:00:40;22.20;72.90
51801;DHT22;37855;53.204;6.568;2022-08-14T04:03:08;22.10;72.90
51801;DHT22;37855;53.204;6.568;2022-08-14T04:05:35;22.20;72.80
51801;DHT22;37855;53.204;6.568;2022-08-14T04:08:04;22.20;72.50
51801;DHT22;37855;53.204;6.568;2022-08-14T04:10:30;22.20;72.50
51801;DHT22;37855;53.204;6.568;2022-08-14T04:12:56;22.20;72.40
51801;DHT22;37855;53.204;6.568;2022-08-14T04:15:24;22.30;72.30
51801;DHT22;37855;53.204;6.568;2022-08-14T04:17:51;22.40;72.20
51801;DHT22;37855;53.204;6.568;2022-08-14T04:20:18;22.40;72.00
51801;DHT22;37855;53.204;6.568;2022-08-14T04:22:44;22.40;71.90
51801;DHT22;37855;53.204;6.568;2022-08-14T04:25:10;22.40;71.90
51801;DHT22;37855;53.204;6.568;2022-08-14T04:27:36;22.30;72.10
51801;DHT22;37855;53.204;6.568;2022-08-14T04:30:04;22.30;72.10
51801;DHT22;37855;53.204;6.568;2022-08-14T04:32:30;22.40;72.10
51801;DHT22;37855;53.204;6.568;2022-08-14T04:34:59;22.40;71.90
51801;DHT22;37855;53.204;6.568;2022-08-14T04:37:25;22.50;71.80
51801;DHT22;37855;53.204;6.568;2022-08-14T04:40:10;22.50;71.90
51801;DHT22;37855;53.204;6.568;2022-08-14T04:42:54;22.40;71.90
51801;DHT22;37855;53.204;6.568;2022-08-14T04:45:38;22.40;72.10
51801;DHT22;37855;53.204;6.568;2022-08-14T04:48:14;22.40;72.30
51801;DHT22;37855;53.204;6.568;2022-08-14T04:50:49;22.20;72.70
51801;DHT22;37855;53.204;6.568;2022-08-14T04:53:18;22.20;73.00
51801;DHT22;37855;53.204;6.568;2022-08-14T04:55:46;22.10;73.10
51801;DHT22;37855;53.204;6.568;2022-08-14T04:58:17;22.10;73.30
51801;DHT22;37855;53.204;6.568;2022-08-14T05:00:45;22.10;73.30
51801;DHT22;37855;53.204;6.568;2022-08-14T05:03:13;22.20;73.20
51801;DHT22;37855;53.204;6.568;2022-08-14T05:05:39;22.20;72.90
51801;DHT22;37855;53.204;6.568;2022-08-14T05:08:07;22.30;72.60
51801;DHT22;37855;53.204;6.568;2022-08-14T05:10:48;22.40;72.40
51801;DHT22;37855;53.204;6.568;2022-08-14T05:13:17;22.40;72.20
51801;DHT22;37855;53.204;6.568;2022-08-14T05:15:43;22.40;72.20
51801;DHT22;37855;53.204;6.568;2022-08-14T05:18:16;22.40;72.20
51801;DHT22;37855;53.204;6.568;2022-08-14T05:20:45;22.40;71.90
51801;DHT22;37855;53.204;6.568;2022-08-14T05:23:16;22.50;71.60
51801;DHT22;37855;53.204;6.568;2022-08-14T05:25:43;22.60;71.40
51801;DHT22;37855;53.204;6.568;2022-08-14T05:28:11;22.60;71.20
51801;DHT22;37855;53.204;6.568;2022-08-14T05:30:38;22.70;71.00
51801;DHT22;37855;53.204;6.568;2022-08-14T05:33:08;22.70;71.70
51801;DHT22;37855;53.204;6.568;2022-08-14T05:35:33;22.80;70.50
51801;DHT22;37855;53.204;6.568;2022-08-14T05:37:59;22.90;70.30
51801;DHT22;37855;53.204;6.568;2022-08-14T05:40:25;22.90;70.00
51801;DHT22;37855;53.204;6.568;2022-08-14T05:42:51;23.00;69.90
51801;DHT22;37855;53.204;6.568;2022-08-14T05:45:17;23.00;69.70
51801;DHT22;37855;53.204;6.568;2022-08-14T05:47:43;23.00;69.70
51801;DHT22;37855;53.204;6.568;2022-08-14T05:50:11;22.90;69.80
51801;DHT22;37855;53.204;6.568;2022-08-14T05:52:37;23.00;69.70
51801;DHT22;37855;53.204;6.568;2022-08-14T05:55:05;23.10;69.50
51801;DHT22;37855;53.204;6.568;2022-08-14T05:57:31;23.20;69.30
51801;DHT22;37855;53.204;6.568;2022-08-14T05:59:56;23.10;69.20
51801;DHT22;37855;53.204;6.568;2022-08-14T06:02:22;23.20;69.30
51801;DHT22;37855;53.204;6.568;2022-08-14T06:04:48;23.20;69.20
51801;DHT22;37855;53.204;6.568;2022-08-14T06:07:14;23.20;69.20
51801;DHT22;37855;53.204;6.568;2022-08-14T06:09:39;23.20;69.20
51801;DHT22;37855;53.204;6.568;2022-08-14T06:12:08;23.20;69.30
51801;DHT22;37855;53.204;6.568;2022-08-14T06:14:35;23.20;69.30
51801;DHT22;37855;53.204;6.568;2022-08-14T06:17:01;23.30;69.50
51801;DHT22;37855;53.204;6.568;2022-08-14T06:19:26;23.30;69.30
51801;DHT22;37855;53.204;6.568;2022-08-14T06:21:52;23.40;69.30
51801;DHT22;37855;53.204;6.568;2022-08-14T06:26:46;23.50;69.40
51801;DHT22;37855;53.204;6.568;2022-08-14T06:29:12;23.50;69.30
51801;DHT22;37855;53.204;6.568;2022-08-14T06:31:38;23.50;69.30
51801;DHT22;37855;53.204;6.568;2022-08-14T06:34:06;23.60;69.20
51801;DHT22;37855;53.204;6.568;2022-08-14T06:39:07;23.70;69.10
51801;DHT22;37855;53.204;6.568;2022-08-14T06:41:33;23.70;70.20
51801;DHT22;37855;53.204;6.568;2022-08-14T06:43:59;23.70;69.10
51801;DHT22;37855;53.204;6.568;2022-08-14T06:46:29;23.70;69.10
51801;DHT22;37855;53.204;6.568;2022-08-14T06:54:09;23.90;68.90
51801;DHT22;37855;53.204;6.568;2022-08-14T06:56:34;23.90;68.70
51801;DHT22;37855;53.204;6.568;2022-08-14T06:59:00;24.00;68.50
51801;DHT22;37855;53.204;6.568;2022-08-14T07:01:26;24.00;68.30
51801;DHT22;37855;53.204;6.568;2022-08-14T07:04:10;24.10;68.40
51801;DHT22;37855;53.204;6.568;2022-08-14T07:06:54;24.30;68.20
51801;DHT22;37855;53.204;6.568;2022-08-14T07:09:20;24.20;68.00
51801;DHT22;37855;53.204;6.568;2022-08-14T07:11:46;24.20;67.80
51801;DHT22;37855;53.204;6.568;2022-08-14T07:14:11;24.30;67.60
51801;DHT22;37855;53.204;6.568;2022-08-14T07:16:38;24.30;67.40
51801;DHT22;37855;53.204;6.568;2022-08-14T07:19:09;24.30;67.10
51801;DHT22;37855;53.204;6.568;2022-08-14T07:21:34;24.40;67.20
51801;DHT22;37855;53.204;6.568;2022-08-14T07:24:02;24.30;67.00
51801;DHT22;37855;53.204;6.568;2022-08-14T07:26:28;24.50;66.60
51801;DHT22;37855;53.204;6.568;2022-08-14T07:28:54;24.60;66.50
51801;DHT22;37855;53.204;6.568;2022-08-14T07:31:19;24.60;66.30
51801;DHT22;37855;53.204;6.568;2022-08-14T07:33:47;24.60;66.20
51801;DHT22;37855;53.204;6.568;2022-08-14T07:36:16;24.60;66.00
51801;DHT22;37855;53.204;6.568;2022-08-14T07:38:42;24.70;66.10
51801;DHT22;37855;53.204;6.568;2022-08-14T07:41:10;24.70;65.90
51801;DHT22;37855;53.204;6.568;2022-08-14T07:43:37;24.70;65.90
51801;DHT22;37855;53.204;6.568;2022-08-14T07:46:04;24.70;65.90
51801;DHT22;37855;53.204;6.568;2022-08-14T07:48:30;24.80;65.80
51801;DHT22;37855;53.204;6.568;2022-08-14T07:50:56;24.80;65.70
51801;DHT22;37855;53.204;6.568;2022-08-14T07:53:22;25.00;65.60
51801;DHT22;37855;53.204;6.568;2022-08-14T07:55:48;25.00;65.60
51801;DHT22;37855;53.204;6.568;2022-08-14T07:58:15;25.10;65.50
51801;DHT22;37855;53.204;6.568;2022-08-14T08:00:42;25.10;65.50
51801;DHT22;37855;53.204;6.568;2022-08-14T08:03:09;25.10;65.40
51801;DHT22;37855;53.204;6.568;2022-08-14T08:05:37;25.20;65.10
51801;DHT22;37855;53.204;6.568;2022-08-14T08:08:03;25.30;65.00
51801;DHT22;37855;53.204;6.568;2022-08-14T08:10:30;25.30;64.80
51801;DHT22;37855;53.204;6.568;2022-08-14T08:15:27;25.40;64.50
51801;DHT22;37855;53.204;6.568;2022-08-14T08:17:53;25.40;64.20
51801;DHT22;37855;53.204;6.568;2022-08-14T08:20:21;25.50;64.10
51801;DHT22;37855;53.204;6.568;2022-08-14T08:22:48;25.50;63.80
51801;DHT22;37855;53.204;6.568;2022-08-14T08:25:17;25.50;63.60
51801;DHT22;37855;53.204;6.568;2022-08-14T08:27:54;25.60;63.40
51801;DHT22;37855;53.204;6.568;2022-08-14T08:30:20;25.60;63.20
51801;DHT22;37855;53.204;6.568;2022-08-14T08:32:46;25.70;63.00
51801;DHT22;37855;53.204;6.568;2022-08-14T08:35:22;25.70;62.80
51801;DHT22;37855;53.204;6.568;2022-08-14T08:37:49;25.70;62.70
51801;DHT22;37855;53.204;6.568;2022-08-14T08:40:26;25.80;62.40
51801;DHT22;37855;53.204;6.568;2022-08-14T08:42:52;25.80;62.10
51801;DHT22;37855;53.204;6.568;2022-08-14T08:45:19;25.90;62.00
51801;DHT22;37855;53.204;6.568;2022-08-14T08:47:46;26.00;61.70
51801;DHT22;37855;53.204;6.568;2022-08-14T08:50:19;26.00;61.50
51801;DHT22;37855;53.204;6.568;2022-08-14T08:52:53;26.00;60.50
51801;DHT22;37855;53.204;6.568;2022-08-14T08:55:27;26.00;60.60
51801;DHT22;37855;53.204;6.568;2022-08-14T08:57:57;26.00;60.40
51801;DHT22;37855;53.204;6.568;2022-08-14T09:00:24;26.10;60.30
51801;DHT22;37855;53.204;6.568;2022-08-14T09:02:55;26.10;60.10
51801;DHT22;37855;53.204;6.568;2022-08-14T09:05:22;26.20;59.90
51801;DHT22;37855;53.204;6.568;2022-08-14T09:07:48;26.20;59.40
51801;DHT22;37855;53.204;6.568;2022-08-14T09:10:17;26.30;59.10
51801;DHT22;37855;53.204;6.568;2022-08-14T09:12:46;26.30;58.80
51801;DHT22;37855;53.204;6.568;2022-08-14T09:15:12;26.30;58.70
51801;DHT22;37855;53.204;6.568;2022-08-14T09:17:39;26.40;58.50
51801;DHT22;37855;53.204;6.568;2022-08-14T09:20:05;26.40;58.30
51801;DHT22;37855;53.204;6.568;2022-08-14T09:22:31;26.50;58.20
51801;DHT22;37855;53.204;6.568;2022-08-14T09:24:57;26.50;58.00
51801;DHT22;37855;53.204;6.568;2022-08-14T09:27:23;26.50;57.90
51801;DHT22;37855;53.204;6.568;2022-08-14T09:29:49;26.60;57.70
51801;DHT22;37855;53.204;6.568;2022-08-14T09:32:26;26.60;57.80
51801;DHT22;37855;53.204;6.568;2022-08-14T09:34:59;26.60;57.30
51801;DHT22;37855;53.204;6.568;2022-08-14T09:37:36;26.70;57.50
51801;DHT22;37855;53.204;6.568;2022-08-14T09:42:46;26.80;56.50
51801;DHT22;37855;53.204;6.568;2022-08-14T09:45:20;26.80;56.80
51801;DHT22;37855;53.204;6.568;2022-08-14T09:47:55;26.80;57.20
51801;DHT22;37855;53.204;6.568;2022-08-14T09:50:31;26.90;57.30
51801;DHT22;37855;53.204;6.568;2022-08-14T09:53:01;27.00;56.60
51801;DHT22;37855;53.204;6.568;2022-08-14T09:55:29;27.10;56.60
51801;DHT22;37855;53.204;6.568;2022-08-14T09:58:15;27.10;56.30
51801;DHT22;37855;53.204;6.568;2022-08-14T10:00:44;27.20;56.00
51801;DHT22;37855;53.204;6.568;2022-08-14T10:03:12;27.20;56.30
51801;DHT22;37855;53.204;6.568;2022-08-14T10:05:38;27.30;56.10
51801;DHT22;37855;53.204;6.568;2022-08-14T10:08:14;27.30;56.00
51801;DHT22;37855;53.204;6.568;2022-08-14T10:10:40;27.40;55.80
51801;DHT22;37855;53.204;6.568;2022-08-14T10:13:19;27.40;56.40
51801;DHT22;37855;53.204;6.568;2022-08-14T10:15:45;27.30;55.00
51801;DHT22;37855;53.204;6.568;2022-08-14T10:18:26;27.40;55.70
51801;DHT22;37855;53.204;6.568;2022-08-14T10:20:55;27.40;55.80
51801;DHT22;37855;53.204;6.568;2022-08-14T10:23:24;27.40;55.20
51801;DHT22;37855;53.204;6.568;2022-08-14T10:25:52;27.40;55.10
51801;DHT22;37855;53.204;6.568;2022-08-14T10:28:22;27.50;55.10
51801;DHT22;37855;53.204;6.568;2022-08-14T10:30:49;27.50;55.20
51801;DHT22;37855;53.204;6.568;2022-08-14T10:33:30;27.60;54.80
51801;DHT22;37855;53.204;6.568;2022-08-14T10:35:57;27.70;54.00
51801;DHT22;37855;53.204;6.568;2022-08-14T10:38:31;27.70;53.90
51801;DHT22;37855;53.204;6.568;2022-08-14T10:43:38;27.80;52.80
51801;DHT22;37855;53.204;6.568;2022-08-14T10:46:15;27.80;53.10
51801;DHT22;37855;53.204;6.568;2022-08-14T10:48:53;27.90;52.90
51801;DHT22;37855;53.204;6.568;2022-08-14T10:51:26;27.90;52.70
51801;DHT22;37855;53.204;6.568;2022-08-14T10:53:54;27.90;52.70
51801;DHT22;37855;53.204;6.568;2022-08-14T10:56:28;28.00;52.60
51801;DHT22;37855;53.204;6.568;2022-08-14T10:59:04;28.00;52.40
51801;DHT22;37855;53.204;6.568;2022-08-14T11:01:31;28.00;52.60
51801;DHT22;37855;53.204;6.568;2022-08-14T11:03:57;28.00;52.00
51801;DHT22;37855;53.204;6.568;2022-08-14T11:06:23;28.00;52.50
51801;DHT22;37855;53.204;6.568;2022-08-14T11:08:48;28.00;51.70
51801;DHT22;37855;53.204;6.568;2022-08-14T11:11:16;28.00;51.90
51801;DHT22;37855;53.204;6.568;2022-08-14T11:13:43;28.10;51.90
51801;DHT22;37855;53.204;6.568;2022-08-14T11:16:11;28.10;52.00
51801;DHT22;37855;53.204;6.568;2022-08-14T11:18:38;28.10;51.90
51801;DHT22;37855;53.204;6.568;2022-08-14T11:21:04;28.10;51.70
51801;DHT22;37855;53.204;6.568;2022-08-14T11:23:35;28.10;51.60
51801;DHT22;37855;53.204;6.568;2022-08-14T11:26:04;28.20;51.30
51801;DHT22;37855;53.204;6.568;2022-08-14T11:28:37;28.30;51.50
51801;DHT22;37855;53.204;6.568;2022-08-14T11:31:05;28.40;51.70
51801;DHT22;37855;53.204;6.568;2022-08-14T11:33:32;28.40;51.30
51801;DHT22;37855;53.204;6.568;2022-08-14T11:36:02;28.40;51.10
51801;DHT22;37855;53.204;6.568;2022-08-14T11:38:37;28.50;51.00
51801;DHT22;37855;53.204;6.568;2022-08-14T11:41:02;28.50;50.30
51801;DHT22;37855;53.204;6.568;2022-08-14T11:43:29;28.60;50.80
51801;DHT22;37855;53.204;6.568;2022-08-14T11:45:56;28.50;50.40
51801;DHT22;37855;53.204;6.568;2022-08-14T11:48:23;28.60;50.30
51801;DHT22;37855;53.204;6.568;2022-08-14T11:50:51;28.60;49.80
51801;DHT22;37855;53.204;6.568;2022-08-14T11:53:24;28.70;50.00
51801;DHT22;37855;53.204;6.568;2022-08-14T11:56:02;28.70;49.90
51801;DHT22;37855;53.204;6.568;2022-08-14T11:58:34;28.80;49.80
51801;DHT22;37855;53.204;6.568;2022-08-14T12:01:02;28.80;49.60
51801;DHT22;37855;53.204;6.568;2022-08-14T12:03:46;28.80;49.30
51801;DHT22;37855;53.204;6.568;2022-08-14T12:06:15;28.80;48.10
51801;DHT22;37855;53.204;6.568;2022-08-14T12:08:41;28.90;48.60
51801;DHT22;37855;53.204;6.568;2022-08-14T12:11:09;29.00;49.00
51801;DHT22;37855;53.204;6.568;2022-08-14T12:13:37;29.00;48.60
51801;DHT22;37855;53.204;6.568;2022-08-14T12:16:09;29.10;48.20
51801;DHT22;37855;53.204;6.568;2022-08-14T12:18:40;29.10;48.20
51801;DHT22;37855;53.204;6.568;2022-08-14T12:23:38;29.10;47.90
51801;DHT22;37855;53.204;6.568;2022-08-14T12:26:12;29.20;47.90
51801;DHT22;37855;53.204;6.568;2022-08-14T12:28:38;29.20;47.90
51801;DHT22;37855;53.204;6.568;2022-08-14T12:31:15;29.20;47.80
51801;DHT22;37855;53.204;6.568;2022-08-14T12:33:42;29.20;45.90
51801;DHT22;37855;53.204;6.568;2022-08-14T12:36:18;29.10;46.80
51801;DHT22;37855;53.204;6.568;2022-08-14T12:38:49;29.00;47.10
51801;DHT22;37855;53.204;6.568;2022-08-14T12:41:21;29.10;47.50
51801;DHT22;37855;53.204;6.568;2022-08-14T12:43:58;29.20;47.60
51801;DHT22;37855;53.204;6.568;2022-08-14T12:48:58;29.50;46.10
51801;DHT22;37855;53.204;6.568;2022-08-14T12:51:25;29.50;46.30
51801;DHT22;37855;53.204;6.568;2022-08-14T12:53:53;29.60;46.20
51801;DHT22;37855;53.204;6.568;2022-08-14T12:56:21;29.60;46.20
51801;DHT22;37855;53.204;6.568;2022-08-14T12:58:51;29.80;45.20
51801;DHT22;37855;53.204;6.568;2022-08-14T13:06:38;29.90;45.40
51801;DHT22;37855;53.204;6.568;2022-08-14T13:09:05;29.90;44.80
51801;DHT22;37855;53.204;6.568;2022-08-14T13:11:38;29.80;45.30
51801;DHT22;37855;53.204;6.568;2022-08-14T13:14:05;29.80;45.10
51801;DHT22;37855;53.204;6.568;2022-08-14T13:16:31;29.80;45.40
51801;DHT22;37855;53.204;6.568;2022-08-14T13:18:57;29.80;45.10
51801;DHT22;37855;53.204;6.568;2022-08-14T13:21:29;29.80;45.10
51801;DHT22;37855;53.204;6.568;2022-08-14T13:23:56;29.90;45.00
51801;DHT22;37855;53.204;6.568;2022-08-14T13:26:25;29.90;45.20
51801;DHT22;37855;53.204;6.568;2022-08-14T13:28:51;29.90;45.00
51801;DHT22;37855;53.204;6.568;2022-08-14T13:31:21;29.90;45.10
51801;DHT22;37855;53.204;6.568;2022-08-14T13:33:48;29.90;44.70
51801;DHT22;37855;53.204;6.568;2022-08-14T13:36:14;29.90;44.80
51801;DHT22;37855;53.204;6.568;2022-08-14T13:38:42;29.90;44.90
51801;DHT22;37855;53.204;6.568;2022-08-14T13:41:10;29.90;44.60
51801;DHT22;37855;53.204;6.568;2022-08-14T13:46:11;30.00;43.90
51801;DHT22;37855;53.204;6.568;2022-08-14T13:48:36;30.00;43.70
51801;DHT22;37855;53.204;6.568;2022-08-14T13:51:04;30.10;43.60
51801;DHT22;37855;53.204;6.568;2022-08-14T13:53:35;30.10;43.40
51801;DHT22;37855;53.204;6.568;2022-08-14T13:56:10;30.10;44.00
51801;DHT22;37855;53.204;6.568;2022-08-14T13:58:35;30.10;44.30
51801;DHT22;37855;53.204;6.568;2022-08-14T14:01:02;30.10;44.20
51801;DHT22;37855;53.204;6.568;2022-08-14T14:03:33;30.10;44.10
51801;DHT22;37855;53.204;6.568;2022-08-14T14:06:01;30.00;43.90
51801;DHT22;37855;53.204;6.568;2022-08-14T14:08:27;30.00;44.30
51801;DHT22;37855;53.204;6.568;2022-08-14T14:10:55;30.00;44.20
51801;DHT22;37855;53.204;6.568;2022-08-14T14:13:20;30.00;44.20
51801;DHT22;37855;53.204;6.568;2022-08-14T14:15:47;30.00;43.90
51801;DHT22;37855;53.204;6.568;2022-08-14T14:18:13;30.10;44.40
51801;DHT22;37855;53.204;6.568;2022-08-14T14:20:42;30.20;44.50
51801;DHT22;37855;53.204;6.568;2022-08-14T14:23:11;30.30;44.10
51801;DHT22;37855;53.204;6.568;2022-08-14T14:25:42;30.40;42.80
51801;DHT22;37855;53.204;6.568;2022-08-14T14:28:13;30.40;43.20
51801;DHT22;37855;53.204;6.568;2022-08-14T14:30:45;30.50;43.00
51801;DHT22;37855;53.204;6.568;2022-08-14T14:33:12;30.50;42.70
51801;DHT22;37855;53.204;6.568;2022-08-14T14:35:43;30.60;42.90
51801;DHT22;37855;53.204;6.568;2022-08-14T14:38:15;30.70;42.80
51801;DHT22;37855;53.204;6.568;2022-08-14T14:40:44;30.70;42.60
51801;DHT22;37855;53.204;6.568;2022-08-14T14:43:12;30.70;42.30
51801;DHT22;37855;53.204;6.568;2022-08-14T14:45:39;30.70;42.50
51801;DHT22;37855;53.204;6.568;2022-08-14T14:48:07;30.70;42.30
51801;DHT22;37855;53.204;6.568;2022-08-14T14:50:34;30.70;42.30
51801;DHT22;37855;53.204;6.568;2022-08-14T14:53:03;30.80;41.20
51801;DHT22;37855;53.204;6.568;2022-08-14T14:55:30;30.80;41.60
51801;DHT22;37855;53.204;6.568;2022-08-14T14:58:00;30.80;41.80
51801;DHT22;37855;53.204;6.568;2022-08-14T15:00:26;30.80;42.20
51801;DHT22;37855;53.204;6.568;2022-08-14T15:02:53;30.80;41.90
51801;DHT22;37855;53.204;6.568;2022-08-14T15:05:21;30.70;41.30
51801;DHT22;37855;53.204;6.568;2022-08-14T15:07:50;30.70;41.70
51801;DHT22;37855;53.204;6.568;2022-08-14T15:10:18;30.80;42.00
51801;DHT22;37855;53.204;6.568;2022-08-14T15:12:44;30.80;42.20
51801;DHT22;37855;53.204;6.568;2022-08-14T15:15:11;30.90;41.90
51801;DHT22;37855;53.204;6.568;2022-08-14T15:17:40;31.00;42.10
51801;DHT22;37855;53.204;6.568;2022-08-14T15:20:11;31.10;41.60
51801;DHT22;37855;53.204;6.568;2022-08-14T15:22:37;31.10;41.50
51801;DHT22;37855;53.204;6.568;2022-08-14T15:25:08;31.20;41.30
51801;DHT22;37855;53.204;6.568;2022-08-14T15:27:38;31.20;41.10
51801;DHT22;37855;53.204;6.568;2022-08-14T15:30:06;31.20;40.80
51801;DHT22;37855;53.204;6.568;2022-08-14T15:32:32;31.30;40.50
51801;DHT22;37855;53.204;6.568;2022-08-14T15:34:58;31.30;40.80
51801;DHT22;37855;53.204;6.568;2022-08-14T15:37:25;31.30;40.70
51801;DHT22;37855;53.204;6.568;2022-08-14T15:39:50;31.30;40.90
51801;DHT22;37855;53.204;6.568;2022-08-14T15:42:16;31.20;40.40
51801;DHT22;37855;53.204;6.568;2022-08-14T15:44:46;31.20;40.80
51801;DHT22;37855;53.204;6.568;2022-08-14T15:47:13;31.20;40.90
51801;DHT22;37855;53.204;6.568;2022-08-14T15:49:39;31.20;41.00
51801;DHT22;37855;53.204;6.568;2022-08-14T15:52:05;31.20;40.70
51801;DHT22;37855;53.204;6.568;2022-08-14T15:54:31;31.20;40.90
51801;DHT22;37855;53.204;6.568;2022-08-14T15:57:04;31.20;41.00
51801;DHT22;37855;53.204;6.568;2022-08-14T15:59:32;31.20;40.90
51801;DHT22;37855;53.204;6.568;2022-08-14T16:02:17;31.20;41.20
51801;DHT22;37855;53.204;6.568;2022-08-14T16:04:43;31.20;41.50
51801;DHT22;37855;53.204;6.568;2022-08-14T16:07:09;31.20;41.50
51801;DHT22;37855;53.204;6.568;2022-08-14T16:09:34;31.30;41.20
51801;DHT22;37855;53.204;6.568;2022-08-14T16:12:00;31.30;41.00